logo
Rechercher aéroport 
image banner adimage banner adimage banner ad
image banner ad

OP33 - Kandhkot Airport

Situé à Kandhkot, Pakistan

ICAO - OP33, IATA -

Données fournies par Airmate  

Information générale

Coordonnées: N28°16'26" E69°16'34"
Élévation : 250 feet MSL.
Variation magnétique : 2° East
Voir autres Aéroports à Sindh

Données opérationnelles

Special qualification required
Heure actuelle UTC:
Heure actuelle locale:
TAF: TAF OPSK 220500Z 2206/2306 29010KT 5000 HZ NSC FM221600 31005KT 4000 HZ NSC
Voir NOTAMs / SUP AIP / TFR affectant cet aéroport [VIEW]
Fréquences de communication: [VIEW]

Pistes:

Coordonnées de l'aéroport

Adresse: Kandhkot Pakistan

Vue satellite de OP33